Time;durP1;ratioP1;P1;durP2;ratioP2;P2;SDS_P1;SDS_P2;PMS_P1;PMS_P2;Temp;Humidity;BMP_temperature;BMP_pressure;BME280_temperature;BME280_humidity;BME280_pressure;Samples;Min_cycle;Max_cycle;Signal;HPM_P1;HPM_P2
2022/11/26 06:52:13;;;;;;;2.13;1.45;;;;;;;17.87;50.68;101738.94;10240244;27;1608245;-85
2022/11/26 06:57:05;;;;;;;1.90;1.58;;;;;;;18.03;50.44;101746.19;10260447;27;66164;-84
2022/11/26 07:01:57;;;;;;;1.42;1.33;;;;;;;18.12;50.28;101747.34;10260384;27;66356;-88
2022/11/26 07:06:49;;;;;;;1.88;1.30;;;;;;;18.27;50.08;101756.78;10232412;27;65353;-86
2022/11/26 07:11:43;;;;;;;1.42;1.33;;;;;;;18.38;49.54;101759.31;10251349;27;65654;-87
2022/11/26 07:16:35;;;;;;;3.20;1.75;;;;;;;18.48;49.01;101766.78;10243035;27;64928;-84
2022/11/26 07:21:27;;;;;;;1.63;1.40;;;;;;;18.56;48.81;101783.63;10252472;27;66544;-86
2022/11/26 07:26:20;;;;;;;2.38;1.48;;;;;;;18.64;48.59;101778.72;10243911;27;65687;-84
2022/11/26 07:31:15;;;;;;;1.52;1.35;;;;;;;18.72;48.31;101786.44;10246165;27;66572;-86
2022/11/26 07:36:08;;;;;;;1.73;1.30;;;;;;;18.77;48.26;101794.69;10260898;27;66069;-85
2022/11/26 07:41:02;;;;;;;1.58;1.48;;;;;;;18.76;48.02;101802.13;10264345;27;66095;-85
2022/11/26 07:45:55;;;;;;;1.55;1.30;;;;;;;18.78;47.68;101808.19;10258934;27;66559;-86
2022/11/26 07:50:48;;;;;;;1.65;1.40;;;;;;;18.80;47.51;101803.25;10256760;27;66574;-86
2022/11/26 07:55:40;;;;;;;1.38;1.23;;;;;;;18.83;47.41;101808.19;10225364;27;65664;-84
2022/11/26 08:00:32;;;;;;;5.38;1.50;;;;;;;18.87;47.63;101817.56;10233433;27;66083;-87
2022/11/26 08:05:24;;;;;;;2.67;1.40;;;;;;;18.86;47.55;101818.66;10215683;27;66593;-86
2022/11/26 08:10:18;;;;;;;2.28;1.30;;;;;;;18.87;47.48;101814.81;10225092;27;65021;-85
2022/11/26 08:15:11;;;;;;;3.10;1.55;;;;;;;18.90;47.42;101817.00;10232703;27;66355;-87
2022/11/26 08:20:03;;;;;;;1.85;1.40;;;;;;;18.93;47.35;101824.72;10217113;27;64163;-86
2022/11/26 08:24:55;;;;;;;2.65;1.40;;;;;;;19.03;47.38;101820.38;10231612;27;66234;-86
2022/11/26 08:29:49;;;;;;;1.40;1.30;;;;;;;19.07;47.35;101832.47;10241545;27;66501;-84
2022/11/26 08:34:41;;;;;;;2.47;1.42;;;;;;;19.23;47.01;101836.94;10226703;27;66387;-85
2022/11/26 08:39:33;;;;;;;3.08;1.65;;;;;;;19.19;46.89;101836.66;10220863;27;66062;-86
2022/11/26 08:44:25;;;;;;;1.73;1.30;;;;;;;19.15;46.83;101841.03;10221795;27;66472;-88
2022/11/26 08:49:19;;;;;;;3.75;3.40;;;;;;;12.40;48.25;101846.34;10222223;27;66449;-80
2022/11/26 08:54:11;;;;;;;6.00;3.70;;;;;;;10.98;50.83;101843.28;10230347;27;65487;-80
2022/11/26 08:59:03;;;;;;;3.50;3.10;;;;;;;15.83;42.55;101833.31;10225038;27;66380;-84
2022/11/26 09:03:56;;;;;;;4.80;2.70;;;;;;;16.84;42.30;101842.28;10231436;27;66429;-87
2022/11/26 09:14:00;;;;;;;3.13;2.58;;;;;;;17.63;42.25;101856.44;10223860;27;67806;-86
2022/11/26 09:18:52;;;;;;;2.90;2.60;;;;;;;17.81;42.98;101869.75;10214475;27;66680;-90
2022/11/26 09:23:44;;;;;;;2.63;2.40;;;;;;;17.97;43.18;101875.41;10229996;27;65530;-85
2022/11/26 09:28:38;;;;;;;2.17;1.98;;;;;;;18.12;43.78;101890.09;10220183;27;67270;-80
2022/11/26 09:33:30;;;;;;;2.40;2.20;;;;;;;18.24;44.42;101893.47;10212462;27;66154;-80
2022/11/26 09:38:22;;;;;;;2.20;2.00;;;;;;;18.41;44.34;101893.34;10207185;27;66531;-83
2022/11/26 09:43:17;;;;;;;2.95;2.33;;;;;;;18.41;44.49;101887.84;10219682;27;65747;-89
2022/11/26 09:48:14;;;;;;;2.20;2.00;;;;;;;18.50;44.32;101896.44;10217929;27;66344;-85
2022/11/26 09:53:12;;;;;;;2.17;2.05;;;;;;;18.48;44.52;101891.19;10219614;27;65498;-79
2022/11/26 09:58:08;;;;;;;4.03;2.00;;;;;;;18.52;44.32;101880.53;10224909;27;66474;-88
2022/11/26 10:03:01;;;;;;;3.90;2.10;;;;;;;18.55;44.15;101877.22;10223945;27;65598;-86
2022/11/26 10:08:01;;;;;;;2.40;2.20;;;;;;;18.55;44.39;101883.56;10220291;27;65418;-84
2022/11/26 10:12:59;;;;;;;3.35;2.17;;;;;;;18.58;44.49;101877.59;10219585;27;66953;-86
2022/11/26 10:17:55;;;;;;;3.25;2.03;;;;;;;18.62;44.48;101877.88;10225279;27;66309;-89
2022/11/26 10:22:50;;;;;;;2.22;1.70;;;;;;;18.81;44.24;101875.53;10218954;27;66219;-91
2022/11/26 10:27:45;;;;;;;2.38;2.00;;;;;;;18.85;44.27;101885.69;10212509;27;66520;-83
2022/11/26 10:32:38;;;;;;;2.10;1.90;;;;;;;18.88;44.28;101873.34;10220624;27;66636;-86
2022/11/26 10:37:30;;;;;;;4.97;2.35;;;;;;;18.90;44.47;101876.66;10216088;27;65745;-89
2022/11/26 10:42:23;;;;;;;2.70;2.22;;;;;;;18.92;44.70;101872.56;10220883;27;65702;-85
2022/11/26 10:47:21;;;;;;;3.90;2.58;;;;;;;18.91;45.11;101884.63;10218256;27;65404;-86
2022/11/26 10:52:15;;;;;;;4.13;2.42;;;;;;;18.88;45.39;101879.69;10209985;27;66588;-87
2022/11/26 10:57:12;;;;;;;4.03;2.30;;;;;;;18.84;45.63;101870.31;10216944;27;66257;-86
2022/11/26 11:02:15;;;;;;;4.65;2.60;;;;;;;18.85;45.49;101873.88;10214598;27;66118;-85
2022/11/26 11:07:17;;;;;;;4.18;2.40;;;;;;;18.78;45.90;101882.38;10215837;27;66327;-83
2022/11/26 11:12:16;;;;;;;4.25;2.50;;;;;;;18.77;45.93;101874.38;10213070;27;66303;-85
2022/11/26 11:17:19;;;;;;;5.07;2.55;;;;;;;18.73;45.89;101862.28;10214353;27;66354;-85
2022/11/26 11:22:18;;;;;;;3.95;2.50;;;;;;;18.68;45.76;101859.47;10213844;27;66334;-84
2022/11/26 11:27:21;;;;;;;4.15;2.50;;;;;;;18.63;45.88;101857.53;10214934;27;65853;-85
2022/11/26 11:32:32;;;;;;;4.60;2.88;;;;;;;18.56;45.84;101852.28;10215036;27;65523;-85
2022/11/26 11:37:25;;;;;;;4.63;2.55;;;;;;;18.56;45.86;101859.69;10223218;27;66237;-84
2022/11/26 11:42:20;;;;;;;5.35;2.50;;;;;;;18.50;45.58;101855.25;10218681;27;64979;-85
2022/11/26 11:47:28;;;;;;;5.57;3.13;;;;;;;18.45;45.91;101856.00;10201527;27;64978;-83
2022/11/26 11:52:26;;;;;;;3.55;2.58;;;;;;;18.47;46.08;101845.59;10218264;27;65407;-84
2022/11/26 11:57:21;;;;;;;3.80;2.67;;;;;;;18.42;45.98;101842.00;10213736;27;66407;-86
2022/11/26 12:02:22;;;;;;;4.70;2.97;;;;;;;18.40;45.89;101839.50;10221131;27;64808;-84
2022/11/26 12:07:37;;;;;;;3.50;2.38;;;;;;;18.38;45.96;101838.94;10219017;27;66469;-85
2022/11/26 12:12:31;;;;;;;5.78;2.97;;;;;;;18.34;45.90;101829.59;10216556;27;66855;-84
2022/11/26 12:17:28;;;;;;;4.15;2.75;;;;;;;18.33;46.13;101835.34;10213778;27;65760;-85
2022/11/26 12:22:21;;;;;;;5.10;2.80;;;;;;;18.32;45.96;101830.94;10214868;27;65524;-86
2022/11/26 12:27:22;;;;;;;6.40;2.97;;;;;;;18.28;45.88;101838.88;10216988;27;65274;-85
2022/11/26 12:32:17;;;;;;;5.90;3.20;;;;;;;18.28;46.20;101827.91;10219625;27;66100;-87
2022/11/26 12:37:13;;;;;;;4.85;2.78;;;;;;;18.33;46.16;101832.59;10218971;27;66344;-88
2022/11/26 12:42:08;;;;;;;3.72;2.85;;;;;;;18.28;46.34;101832.56;10219276;27;65715;-87
2022/11/26 12:47:04;;;;;;;5.97;2.83;;;;;;;18.27;46.41;101844.63;10221851;27;66566;-86
2022/11/26 12:52:03;;;;;;;7.38;2.95;;;;;;;18.28;46.52;101841.63;10196928;27;66659;-84
2022/11/26 12:56:57;;;;;;;4.35;2.80;;;;;;;18.26;46.58;101851.22;10218319;27;65424;-84
2022/11/26 13:01:49;;;;;;;4.10;2.90;;;;;;;18.33;47.04;101852.63;10217488;27;66023;-90
2022/11/26 13:06:51;;;;;;;5.68;2.88;;;;;;;18.30;47.04;101855.94;10218485;27;66155;-87
2022/11/26 13:11:47;;;;;;;5.95;2.70;;;;;;;18.51;46.82;101848.66;10216662;27;65644;-80
2022/11/26 13:16:41;;;;;;;7.95;2.97;;;;;;;18.66;46.45;101845.22;10221543;27;65380;-82
2022/11/26 13:21:55;;;;;;;5.28;3.00;;;;;;;18.53;46.70;101843.69;10218572;27;65505;-81
2022/11/26 13:26:59;;;;;;;11.63;3.10;;;;;;;18.45;47.18;101849.72;10210779;27;64101;-85
2022/11/26 13:31:59;;;;;;;7.95;3.80;;;;;;;18.41;47.50;101854.06;10209662;27;65262;-84
2022/11/26 13:37:01;;;;;;;6.38;3.30;;;;;;;18.36;47.44;101857.63;10207623;27;66400;-82
2022/11/26 13:42:03;;;;;;;4.93;3.50;;;;;;;18.34;47.66;101853.47;10210481;27;66901;-84
2022/11/26 13:46:56;;;;;;;7.68;3.10;;;;;;;18.32;47.82;101847.41;10215860;27;66301;-83
2022/11/26 13:51:50;;;;;;;5.25;2.90;;;;;;;18.31;47.80;101848.50;10219595;27;65452;-82
2022/11/26 13:56:42;;;;;;;4.20;2.92;;;;;;;18.26;47.70;101854.78;10210153;27;66158;-84
2022/11/26 14:01:38;;;;;;;6.50;4.10;;;;;;;16.45;47.95;101859.78;10215243;27;66333;-84
2022/11/26 14:06:31;;;;;;;7.60;4.40;;;;;;;14.09;53.19;101866.41;10220970;27;65725;-85
2022/11/26 14:11:53;;;;;;;8.40;4.55;;;;;;;13.79;52.15;101866.44;10216480;27;66259;-86
2022/11/26 14:17:28;;;;;;;6.57;3.53;;;;;;;15.07;49.91;101861.91;10223346;27;65626;-83
2022/11/26 14:22:28;;;;;;;7.23;2.80;;;;;;;16.21;47.94;101870.91;10226357;27;66446;-84
2022/11/26 14:27:21;;;;;;;5.03;2.10;;;;;;;16.53;47.47;101860.16;10229403;27;66323;-85
2022/11/26 14:32:16;;;;;;;3.50;1.95;;;;;;;16.88;47.50;101864.53;10213617;27;65631;-84
2022/11/26 14:37:12;;;;;;;4.95;2.10;;;;;;;17.10;47.61;101876.34;10223381;27;66374;-86
2022/11/26 14:42:05;;;;;;;5.72;2.20;;;;;;;17.19;47.48;101877.53;10228048;27;65515;-84
2022/11/26 14:46:58;;;;;;;4.25;1.60;;;;;;;17.19;47.39;101884.94;10223201;27;66304;-86
2022/11/26 14:51:52;;;;;;;5.93;2.25;;;;;;;17.25;47.31;101867.47;10219183;27;65705;-82
2022/11/26 14:56:45;;;;;;;3.55;1.63;;;;;;;17.38;47.60;101875.31;10221605;27;66902;-85
2022/11/26 15:01:43;;;;;;;3.83;1.60;;;;;;;17.38;47.46;101865.16;10234064;27;65345;-83
2022/11/26 15:06:37;;;;;;;4.25;1.90;;;;;;;17.43;47.45;101872.59;10228719;27;66627;-84
2022/11/26 15:11:30;;;;;;;3.72;1.63;;;;;;;17.47;47.48;101860.06;10231012;27;66470;-87
2022/11/26 15:16:26;;;;;;;5.80;2.20;;;;;;;17.50;47.49;101864.19;10237966;27;66452;-87
2022/11/26 15:21:20;;;;;;;7.60;1.73;;;;;;;17.56;47.37;101854.94;10233330;27;65301;-88
2022/11/26 15:26:12;;;;;;;3.30;1.90;;;;;;;17.67;47.84;101845.75;10221370;27;66373;-83
2022/11/26 15:31:07;;;;;;;1.63;1.30;;;;;;;17.63;47.57;101841.88;10217486;27;66220;-84
2022/11/26 15:36:00;;;;;;;2.47;1.40;;;;;;;17.63;47.66;101839.16;10213045;27;65020;-84
2022/11/26 15:40:53;;;;;;;4.05;1.77;;;;;;;17.66;47.71;101841.34;10219841;27;65193;-83
2022/11/26 15:45:45;;;;;;;3.72;1.80;;;;;;;17.67;47.60;101835.63;10217409;27;66086;-85
2022/11/26 15:50:37;;;;;;;3.35;1.77;;;;;;;17.69;47.74;101844.41;10226675;27;66369;-83
2022/11/26 15:55:32;;;;;;;3.78;1.70;;;;;;;17.71;47.84;101834.00;10224902;27;65354;-83
2022/11/26 16:00:29;;;;;;;6.03;1.98;;;;;;;17.71;47.99;101838.69;10218461;27;66441;-79
2022/11/26 16:05:23;;;;;;;5.60;1.92;;;;;;;17.75;48.23;101848.03;10223857;27;65243;-78
2022/11/26 16:10:21;;;;;;;3.60;2.00;;;;;;;17.76;48.05;101855.19;10220612;27;65858;-72
2022/11/26 16:15:22;;;;;;;5.15;2.17;;;;;;;17.73;48.16;101863.91;10225365;27;66375;-70
2022/11/26 16:20:16;;;;;;;4.55;1.95;;;;;;;17.73;48.25;101858.44;10220492;27;66499;-75
2022/11/26 16:25:20;;;;;;;5.35;1.83;;;;;;;17.77;48.28;101856.84;10217437;27;64975;-70
2022/11/26 16:30:14;;;;;;;4.80;2.10;;;;;;;17.77;48.39;101859.59;10216280;27;64851;-71
2022/11/26 16:35:08;;;;;;;3.58;1.80;;;;;;;17.78;48.60;101848.31;10228820;27;66024;-70
2022/11/26 16:40:01;;;;;;;3.80;2.38;;;;;;;17.79;48.85;101851.91;10227651;27;65885;-71
2022/11/26 16:44:53;;;;;;;5.00;2.20;;;;;;;17.81;49.04;101858.78;10213903;27;66546;-71
2022/11/26 16:49:45;;;;;;;6.47;1.85;;;;;;;17.81;49.29;101858.78;10211772;27;66527;-71
2022/11/26 16:54:38;;;;;;;5.80;2.20;;;;;;;17.84;49.31;101855.53;10216651;27;66557;-77
2022/11/26 16:59:30;;;;;;;4.40;2.35;;;;;;;17.86;49.44;101865.44;10223749;27;66015;-71
2022/11/26 17:04:22;;;;;;;6.95;2.10;;;;;;;17.86;49.49;101866.22;10225696;27;66392;-75
2022/11/26 17:09:16;;;;;;;4.28;2.13;;;;;;;17.86;49.59;101863.50;10228050;27;66414;-79
2022/11/26 17:14:11;;;;;;;6.70;2.40;;;;;;;17.93;49.52;101857.81;10221727;27;66350;-72
2022/11/26 17:19:03;;;;;;;3.50;1.80;;;;;;;18.23;49.35;101867.09;10214838;27;65496;-82
2022/11/26 17:23:55;;;;;;;5.97;2.60;;;;;;;18.33;48.95;101857.31;10213064;27;65766;-74
2022/11/26 17:28:47;;;;;;;22.03;9.90;;;;;;;18.60;48.78;101850.66;10224683;27;66264;-79
2022/11/26 17:38:48;;;;;;;9.90;5.30;;;;;;;18.88;48.02;101843.13;11854420;22;43718;-72
2022/11/26 17:43:40;;;;;;;13.55;4.18;;;;;;;18.97;47.97;101836.84;9836543;28;74769;-72
2022/11/26 17:48:32;;;;;;;6.80;3.97;;;;;;;19.12;47.62;101846.28;9864734;28;66105;-79
2022/11/26 17:59:12;;;;;;;6.93;3.42;;;;;;;19.12;47.25;101838.03;9865161;28;66976;-74
2022/11/26 18:04:05;;;;;;;23.98;13.60;;;;;;;19.29;47.51;101847.69;9876013;28;65798;-74
2022/11/26 18:08:57;;;;;;;14.40;6.22;;;;;;;19.46;47.27;101850.22;9862958;28;66461;-73
2022/11/26 18:13:49;;;;;;;7.97;4.90;;;;;;;19.48;47.06;101856.31;9856392;28;65621;-72
2022/11/26 18:18:42;;;;;;;6.93;4.25;;;;;;;19.52;47.06;101851.09;9857982;28;66446;-84
2022/11/26 18:23:34;;;;;;;8.45;4.38;;;;;;;19.50;46.80;101847.78;9865995;28;65490;-72
2022/11/26 18:28:27;;;;;;;7.45;3.80;;;;;;;19.54;46.71;101852.47;9865040;28;66268;-89
2022/11/26 18:33:19;;;;;;;8.98;4.28;;;;;;;19.67;46.45;101842.88;9863933;28;66391;-89
2022/11/26 18:38:12;;;;;;;6.35;3.65;;;;;;;19.74;46.37;101844.25;9866740;28;65499;-71
2022/11/26 18:43:04;;;;;;;6.97;3.75;;;;;;;19.70;46.40;101840.41;9863228;28;64201;-75
2022/11/26 18:47:56;;;;;;;7.60;3.75;;;;;;;19.86;46.22;101840.44;9851693;28;65741;-78
2022/11/26 18:52:48;;;;;;;6.53;3.35;;;;;;;19.96;46.46;101840.41;9852868;28;65547;-82
2022/11/26 18:57:42;;;;;;;6.25;3.45;;;;;;;20.00;45.91;101838.78;9862269;28;65478;-84
2022/11/26 19:02:35;;;;;;;7.72;3.25;;;;;;;19.94;46.16;101835.16;9852995;28;65374;-84
2022/11/26 19:07:27;;;;;;;6.65;3.33;;;;;;;19.89;45.99;101828.84;9853759;28;66097;-86
2022/11/26 19:12:19;;;;;;;8.13;3.53;;;;;;;19.80;46.06;101820.31;9858993;28;66396;-78
2022/11/26 19:17:12;;;;;;;5.93;3.30;;;;;;;19.75;46.09;101829.41;9863118;28;64999;-77
2022/11/26 19:22:04;;;;;;;7.15;2.92;;;;;;;19.72;46.16;101818.91;9859016;28;66485;-79
2022/11/26 19:26:56;;;;;;;8.40;3.75;;;;;;;19.68;46.21;101806.81;9857621;28;65708;-79
2022/11/26 19:31:48;;;;;;;5.28;2.97;;;;;;;19.66;46.42;101806.25;9864466;28;66350;-79
2022/11/26 19:36:44;;;;;;;5.22;3.10;;;;;;;19.66;46.23;101803.50;9863867;28;65495;-78
2022/11/26 19:41:36;;;;;;;7.28;3.53;;;;;;;19.62;46.53;101798.84;9859170;28;66526;-76
2022/11/26 19:46:28;;;;;;;5.85;3.63;;;;;;;19.55;46.62;101810.13;9864795;28;65766;-76
2022/11/26 19:51:21;;;;;;;6.18;3.30;;;;;;;19.53;46.50;101808.72;9865011;28;66015;-75
2022/11/26 19:56:17;;;;;;;5.20;3.08;;;;;;;19.49;46.63;101805.69;9864905;28;65565;-76
2022/11/26 20:01:11;;;;;;;5.47;3.05;;;;;;;19.38;46.75;101813.06;9866985;28;65583;-76
2022/11/26 20:06:03;;;;;;;7.45;3.45;;;;;;;19.33;46.90;101809.50;9872330;28;65272;-78
2022/11/26 20:11:00;;;;;;;5.47;3.17;;;;;;;19.30;47.20;101804.53;9870333;28;66191;-75
2022/11/26 20:15:53;;;;;;;8.32;3.55;;;;;;;19.24;47.27;101811.09;9871126;28;65728;-77
2022/11/26 20:20:46;;;;;;;4.00;2.78;;;;;;;19.19;47.41;101811.91;9874293;28;66481;-77
2022/11/26 20:25:38;;;;;;;6.15;3.25;;;;;;;19.12;47.51;101822.31;9866910;28;65697;-77
2022/11/26 20:30:30;;;;;;;4.75;2.95;;;;;;;19.09;47.53;101820.13;9869385;28;66423;-74
2022/11/26 20:35:24;;;;;;;6.03;3.45;;;;;;;19.06;47.79;101817.06;9871775;28;66503;-76
2022/11/26 20:40:16;;;;;;;6.30;3.30;;;;;;;18.98;47.88;101822.00;9872345;28;65926;-76
2022/11/26 20:45:09;;;;;;;5.95;3.03;;;;;;;18.97;48.12;101820.34;9871718;28;66283;-77
2022/11/26 20:50:01;;;;;;;6.30;3.28;;;;;;;18.91;48.08;101821.41;9871393;28;66415;-76
2022/11/26 20:54:54;;;;;;;5.97;2.80;;;;;;;18.89;48.16;101815.38;9868702;28;65270;-76
2022/11/26 20:59:46;;;;;;;5.03;2.95;;;;;;;18.84;48.22;101809.03;9868444;28;66405;-77
2022/11/26 21:04:38;;;;;;;6.38;3.20;;;;;;;18.82;48.45;101812.03;9867559;28;66337;-76
2022/11/26 22:22:25;;;;;;;20.48;11.30;;;;;;;19.19;48.66;101802.84;11610548;23;44135;-76
2022/11/26 22:27:18;;;;;;;17.27;7.95;;;;;;;19.22;48.74;101805.03;9877508;28;66208;-75
2022/11/26 22:32:10;;;;;;;15.35;9.35;;;;;;;19.26;48.44;101803.41;10789082;22;65511;-72
2022/11/26 22:42:08;;;;;;;11.35;5.85;;;;;;;19.42;47.99;101805.09;11162227;23;44020;-84
2022/11/26 22:47:00;;;;;;;12.43;5.13;;;;;;;19.47;48.50;101791.41;10648000;23;66494;-72
2022/11/26 22:51:52;;;;;;;8.30;4.60;;;;;;;19.46;47.88;101795.22;9902349;28;66351;-81
2022/11/26 22:56:44;;;;;;;12.45;5.35;;;;;;;19.52;47.99;101787.81;9913678;28;66272;-75
2022/11/26 23:01:38;;;;;;;11.45;5.38;;;;;;;19.54;47.64;101772.69;9886062;28;65567;-74
2022/11/26 23:06:30;;;;;;;10.63;5.07;;;;;;;19.42;47.99;101768.50;9881414;28;65567;-74
2022/11/26 23:11:24;;;;;;;7.32;4.38;;;;;;;21.01;57.42;101755.88;9888420;28;65925;-79
